createdAt,value
2023-09-16T00:00:13.957Z,101149.95
2023-09-16T00:03:07.440Z,101147.80
2023-09-16T00:05:41.124Z,101152.95
2023-09-16T00:08:13.626Z,101159.94
2023-09-16T00:10:46.978Z,101161.60
2023-09-16T00:13:19.572Z,101164.74
2023-09-16T00:15:52.205Z,101164.16
2023-09-16T00:18:24.653Z,101166.76
2023-09-16T00:20:57.151Z,101165.33
2023-09-16T00:23:29.731Z,101166.16
2023-09-16T00:26:05.006Z,101165.70
2023-09-16T00:28:38.060Z,101166.65
2023-09-16T00:31:12.939Z,101166.14
2023-09-16T00:33:45.378Z,101165.43
2023-09-16T00:36:17.769Z,101166.23
2023-09-16T00:38:48.802Z,101165.02
2023-09-16T00:41:21.379Z,101169.11
2023-09-16T00:43:54.008Z,101167.92
2023-09-16T00:46:27.747Z,101165.80
2023-09-16T00:49:00.298Z,101165.27
2023-09-16T00:51:32.798Z,101160.57
2023-09-16T00:54:05.704Z,101166.84
2023-09-16T00:56:39.599Z,101161.77
2023-09-16T00:59:12.350Z,101161.65
2023-09-16T01:01:51.300Z,101161.66
2023-09-16T01:04:24.838Z,101161.58
2023-09-16T01:06:57.457Z,101161.30
2023-09-16T01:09:29.965Z,101159.73
2023-09-16T01:12:02.431Z,101155.09
2023-09-16T01:14:35.589Z,101156.05
2023-09-16T01:17:12.098Z,101152.61
2023-09-16T01:19:50.082Z,101153.19
2023-09-16T01:22:23.137Z,101150.52
2023-09-16T01:24:57.751Z,101150.83
2023-09-16T01:27:30.326Z,101151.59
2023-09-16T01:30:03.809Z,101153.27
2023-09-16T01:32:44.458Z,101157.11
2023-09-16T01:35:18.572Z,101158.75
2023-09-16T01:37:54.192Z,101164.66
2023-09-16T01:40:27.637Z,101163.64
2023-09-16T01:43:04.359Z,101165.27
2023-09-16T01:45:45.690Z,101162.17
2023-09-16T01:48:18.294Z,101164.11
2023-09-16T01:50:51.236Z,101164.19
2023-09-16T01:53:26.824Z,101164.13
2023-09-16T01:55:59.302Z,101164.84
2023-09-16T01:58:30.001Z,101170.73
2023-09-16T02:01:02.607Z,101169.39
2023-09-16T02:03:33.834Z,101170.83
2023-09-16T02:06:07.471Z,101167.86
2023-09-16T02:08:39.841Z,101172.02
2023-09-16T02:11:10.446Z,101174.52
2023-09-16T02:13:42.856Z,101179.69
2023-09-16T02:16:15.986Z,101175.16
2023-09-16T02:18:48.718Z,101176.35
2023-09-16T02:21:22.957Z,101177.65
2023-09-16T02:23:55.435Z,101174.54
2023-09-16T02:26:27.926Z,101174.54
2023-09-16T02:29:00.434Z,101179.02
2023-09-16T02:31:31.229Z,101174.00
2023-09-16T02:34:04.103Z,101180.64
2023-09-16T02:36:37.829Z,101174.36
2023-09-16T02:39:10.438Z,101173.91
2023-09-16T02:41:42.805Z,101176.30
2023-09-16T02:44:15.434Z,101175.52
2023-09-16T02:46:46.119Z,101180.81
2023-09-16T02:49:18.469Z,101181.45
2023-09-16T02:51:51.182Z,101182.55
2023-09-16T02:54:23.598Z,101182.77
2023-09-16T02:56:54.255Z,101182.84
2023-09-16T02:59:26.780Z,101182.98
2023-09-16T03:01:59.452Z,101180.38
2023-09-16T03:04:31.924Z,101178.58
2023-09-16T03:07:02.766Z,101184.03
2023-09-16T03:09:35.277Z,101192.10
2023-09-16T03:12:10.549Z,101196.44
2023-09-16T03:14:42.920Z,101202.15
2023-09-16T03:17:13.534Z,101208.98
2023-09-16T03:19:46.518Z,101212.23
2023-09-16T03:22:18.972Z,101216.33
2023-09-16T03:24:49.992Z,101221.67
2023-09-16T03:27:22.488Z,101225.83
2023-09-16T03:29:54.951Z,101223.75
2023-09-16T03:32:28.648Z,101226.77
2023-09-16T03:35:00.997Z,101228.59
2023-09-16T03:37:33.303Z,101226.65
2023-09-16T03:40:04.206Z,101222.07
2023-09-16T03:42:40.314Z,101221.16
2023-09-16T03:45:26.942Z,101219.50
2023-09-16T03:48:01.289Z,101218.81
2023-09-16T03:50:32.091Z,101220.80
2023-09-16T03:53:11.138Z,101221.64
2023-09-16T03:55:43.951Z,101227.38
2023-09-16T03:58:16.405Z,101230.34
2023-09-16T04:00:49.236Z,101236.25
2023-09-16T04:03:21.696Z,101235.44
2023-09-16T04:05:55.949Z,101238.68
2023-09-16T04:08:37.960Z,101241.43
2023-09-16T04:11:14.477Z,101241.40
2023-09-16T04:13:47.052Z,101238.45
2023-09-16T04:16:19.768Z,101238.59
2023-09-16T04:18:54.624Z,101246.55
2023-09-16T04:21:27.811Z,101250.13
2023-09-16T04:24:00.188Z,101253.77
2023-09-16T04:26:30.900Z,101252.98
2023-09-16T04:29:04.052Z,101256.56
2023-09-16T04:31:36.682Z,101253.20
2023-09-16T04:34:09.040Z,101256.73
2023-09-16T04:36:40.581Z,101260.83
2023-09-16T04:39:13.022Z,101263.60
2023-09-16T04:41:43.737Z,101260.42
2023-09-16T04:44:16.020Z,101263.14
2023-09-16T04:46:48.625Z,101264.09
2023-09-16T04:49:21.195Z,101267.27
2023-09-16T04:51:55.271Z,101266.04
2023-09-16T04:54:27.925Z,101269.44
2023-09-16T04:56:58.948Z,101271.10
2023-09-16T04:59:33.894Z,101268.66
2023-09-16T05:02:06.527Z,101273.11
2023-09-16T05:04:39.054Z,101270.95
2023-09-16T05:07:09.828Z,101272.42
2023-09-16T05:09:42.426Z,101274.55
2023-09-16T05:12:14.936Z,101277.30
2023-09-16T05:14:47.332Z,101278.14
2023-09-16T05:17:20.157Z,101275.95
2023-09-16T05:19:52.675Z,101274.64
2023-09-16T05:22:23.381Z,101272.48
2023-09-16T05:24:55.678Z,101267.00
2023-09-16T05:27:26.489Z,101267.96
2023-09-16T05:29:58.921Z,101269.57
2023-09-16T05:32:29.700Z,101273.11
2023-09-16T05:35:02.183Z,101277.81
2023-09-16T05:37:34.900Z,101276.51
2023-09-16T05:40:08.770Z,101279.40
2023-09-16T05:42:41.469Z,101282.95
2023-09-16T05:45:14.545Z,101280.39
2023-09-16T05:47:49.717Z,101286.65
2023-09-16T05:50:22.484Z,101289.45
2023-09-16T05:52:54.974Z,101289.66
2023-09-16T05:55:27.334Z,101292.92
2023-09-16T05:57:59.959Z,101295.56
2023-09-16T06:00:32.386Z,101296.85
2023-09-16T06:03:05.017Z,101292.63
2023-09-16T06:05:37.646Z,101296.77
2023-09-16T06:08:11.945Z,101292.85
2023-09-16T06:10:44.236Z,101298.64
2023-09-16T06:13:16.772Z,101299.60
2023-09-16T06:15:49.363Z,101301.73
2023-09-16T06:18:21.952Z,101302.42
2023-09-16T06:20:54.645Z,101306.86
2023-09-16T06:23:29.892Z,101310.45
2023-09-16T06:26:03.503Z,101308.27
2023-09-16T06:28:36.097Z,101311.35
2023-09-16T06:31:10.964Z,101313.89
2023-09-16T06:33:43.578Z,101315.03
2023-09-16T06:36:18.974Z,101322.01
2023-09-16T06:38:51.557Z,101322.86
2023-09-16T06:41:25.635Z,101328.67
2023-09-16T06:43:58.302Z,101323.73
2023-09-16T06:46:31.056Z,101324.23
2023-09-16T06:49:03.490Z,101327.62
2023-09-16T06:51:36.330Z,101329.60
2023-09-16T06:54:09.441Z,101334.77
2023-09-16T06:56:41.936Z,101339.33
2023-09-16T06:59:14.633Z,101345.21
2023-09-16T07:01:50.924Z,101343.16
2023-09-16T07:04:27.845Z,101348.08
2023-09-16T07:07:01.685Z,101357.35
2023-09-16T07:09:33.708Z,101359.80
2023-09-16T07:12:09.737Z,101358.23
2023-09-16T07:14:42.859Z,101362.30
2023-09-16T07:17:15.127Z,101361.95
2023-09-16T07:19:49.839Z,101363.16
2023-09-16T07:22:26.601Z,101367.51
2023-09-16T07:25:04.057Z,101368.25
2023-09-16T07:27:38.394Z,101372.65
2023-09-16T07:30:12.529Z,101372.81
2023-09-16T07:32:47.054Z,101372.14
2023-09-16T07:35:19.577Z,101373.52
2023-09-16T07:37:50.210Z,101371.63
2023-09-16T07:40:22.863Z,101372.60
2023-09-16T07:42:57.591Z,101370.34
2023-09-16T07:45:34.825Z,101375.17
2023-09-16T07:48:10.627Z,101374.11
2023-09-16T07:50:43.360Z,101378.11
2023-09-16T07:53:17.075Z,101378.52
2023-09-16T07:55:49.461Z,101385.57
2023-09-16T07:58:22.658Z,101386.67
2023-09-16T08:00:55.792Z,101391.00
2023-09-16T08:03:33.378Z,101391.14
2023-09-16T08:06:06.088Z,101391.48
2023-09-16T08:08:38.499Z,101392.83
2023-09-16T08:11:12.594Z,101389.89
2023-09-16T08:13:45.094Z,101393.08
2023-09-16T08:16:20.050Z,101397.63
2023-09-16T08:18:53.136Z,101395.16
2023-09-16T08:21:26.232Z,101397.13
2023-09-16T08:24:02.518Z,101396.91
2023-09-16T08:26:35.314Z,101398.77
2023-09-16T08:29:11.322Z,101394.74
2023-09-16T08:31:45.657Z,101392.84
2023-09-16T08:34:18.356Z,101396.07
2023-09-16T08:36:50.878Z,101398.45
2023-09-16T08:39:23.594Z,101402.66
2023-09-16T08:42:02.203Z,101402.46
2023-09-16T08:44:41.442Z,101401.34
2023-09-16T08:47:21.614Z,101403.09
2023-09-16T08:49:58.447Z,101398.36
2023-09-16T08:52:36.309Z,101400.02
2023-09-16T08:55:15.806Z,101400.19
2023-09-16T08:57:50.837Z,101405.23
2023-09-16T09:00:28.738Z,101403.16
2023-09-16T09:03:03.720Z,101407.54
2023-09-16T09:05:38.817Z,101408.58
2023-09-16T09:08:13.965Z,101403.98
2023-09-16T09:10:46.625Z,101404.65
2023-09-16T09:13:21.903Z,101408.46
2023-09-16T09:16:01.701Z,101406.66
2023-09-16T09:18:34.912Z,101407.46
2023-09-16T09:21:11.351Z,101405.61
2023-09-16T09:23:47.395Z,101409.73
2023-09-16T09:26:20.067Z,101408.92
2023-09-16T09:28:54.984Z,101410.64
2023-09-16T09:31:27.671Z,101410.77
2023-09-16T09:34:03.699Z,101410.55
2023-09-16T09:36:43.491Z,101413.16
2023-09-16T09:39:16.012Z,101409.25
2023-09-16T09:41:50.892Z,101406.98
2023-09-16T09:44:24.879Z,101407.23
2023-09-16T09:46:57.345Z,101406.85
2023-09-16T09:49:30.711Z,101403.38
2023-09-16T09:52:05.968Z,101406.66
2023-09-16T09:54:40.958Z,101403.13
2023-09-16T09:57:17.432Z,101398.13
2023-09-16T09:59:52.341Z,101396.58
2023-09-16T10:02:29.351Z,101399.99
2023-09-16T10:05:04.875Z,101402.41
2023-09-16T10:07:54.718Z,101401.75
2023-09-16T10:10:28.977Z,101406.38
2023-09-16T10:13:22.441Z,101404.07
2023-09-16T10:16:02.909Z,101407.73
2023-09-16T10:18:39.259Z,101409.12
2023-09-16T10:21:16.354Z,101405.51
2023-09-16T10:23:51.367Z,101411.30
2023-09-16T10:26:31.738Z,101410.61
2023-09-16T10:29:08.762Z,101408.02
2023-09-16T10:31:45.216Z,101406.23
2023-09-16T10:34:26.241Z,101406.73
2023-09-16T10:37:02.976Z,101407.14
2023-09-16T10:39:39.240Z,101403.77
2023-09-16T10:42:18.234Z,101404.45
2023-09-16T10:44:52.839Z,101403.41
2023-09-16T10:47:28.198Z,101400.77
2023-09-16T10:50:04.140Z,101401.69
2023-09-16T10:52:43.889Z,101402.48
2023-09-16T11:01:31.791Z,101387.55
2023-09-16T11:04:12.041Z,101384.19
2023-09-16T11:06:48.973Z,101383.77
2023-09-16T11:09:25.905Z,101385.30
2023-09-16T11:11:58.843Z,101380.55
2023-09-16T11:14:31.611Z,101378.91
2023-09-16T11:17:15.953Z,101379.99
2023-09-16T11:19:49.086Z,101376.58
2023-09-16T11:22:21.615Z,101367.34
2023-09-16T11:24:57.467Z,101367.77
2023-09-16T11:27:30.492Z,101367.52
2023-09-16T11:30:14.142Z,101364.84
2023-09-16T11:33:25.940Z,101363.42
2023-09-16T11:36:13.469Z,101360.02
2023-09-16T11:39:00.361Z,101357.45
2023-09-16T11:41:32.996Z,101357.26
2023-09-16T11:44:07.468Z,101356.79
2023-09-16T11:46:40.788Z,101355.80
2023-09-16T11:49:16.867Z,101360.60
2023-09-16T11:51:52.599Z,101358.61
2023-09-16T11:54:26.127Z,101361.21
2023-09-16T11:56:59.565Z,101359.66
2023-09-16T11:59:32.993Z,101352.39
2023-09-16T12:02:05.865Z,101353.94
2023-09-16T12:04:38.732Z,101350.59
2023-09-16T12:07:15.212Z,101350.67
2023-09-16T12:10:02.068Z,101346.46
2023-09-16T12:12:37.153Z,101344.77
2023-09-16T12:15:14.346Z,101344.70
2023-09-16T12:17:50.411Z,101342.62
2023-09-16T12:20:29.420Z,101345.60
2023-09-16T12:23:09.058Z,101344.42
2023-09-16T12:25:47.102Z,101348.06
2023-09-16T12:28:30.361Z,101347.36
2023-09-16T12:31:04.371Z,101348.02
2023-09-16T12:33:56.178Z,101346.39
2023-09-16T12:36:41.083Z,101351.69
2023-09-16T12:39:20.098Z,101352.45
2023-09-16T12:42:16.472Z,101354.35
2023-09-16T12:44:54.645Z,101354.45
2023-09-16T12:47:32.858Z,101351.25
2023-09-16T12:50:07.972Z,101351.70
2023-09-16T12:52:48.645Z,101349.99
2023-09-16T12:55:32.733Z,101344.94
2023-09-16T12:58:15.975Z,101342.59
2023-09-16T13:01:02.496Z,101337.29
2023-09-16T13:03:42.939Z,101335.50
2023-09-16T13:06:20.319Z,101332.42
2023-09-16T13:08:55.825Z,101333.82
2023-09-16T13:11:44.544Z,101333.83
2023-09-16T13:14:24.125Z,101335.06
2023-09-16T13:17:00.245Z,101327.63
2023-09-16T13:19:36.089Z,101329.27
2023-09-16T13:22:18.450Z,101327.88
2023-09-16T13:25:03.880Z,101334.50
2023-09-16T13:27:40.510Z,101331.74
2023-09-16T13:30:26.487Z,101332.36
2023-09-16T13:33:00.334Z,101334.81
2023-09-16T13:35:38.387Z,101331.28
2023-09-16T13:38:12.122Z,101334.38
2023-09-16T13:40:51.530Z,101334.05
2023-09-16T13:43:24.109Z,101333.03
2023-09-16T13:45:57.690Z,101334.81
2023-09-16T13:48:32.951Z,101332.61
2023-09-16T13:51:05.480Z,101334.27
2023-09-16T13:53:38.131Z,101332.02
2023-09-16T13:56:10.558Z,101330.63
2023-09-16T13:58:44.685Z,101329.11
2023-09-16T14:01:17.377Z,101332.23
2023-09-16T14:03:50.223Z,101330.95
2023-09-16T14:06:24.004Z,101331.92
2023-09-16T14:08:56.387Z,101334.34
2023-09-16T14:11:28.881Z,101330.62
2023-09-16T14:14:01.646Z,101330.38
2023-09-16T14:16:35.417Z,101332.98
2023-09-16T14:19:08.901Z,101332.20
2023-09-16T14:21:42.237Z,101332.25
2023-09-16T14:24:14.926Z,101328.86
2023-09-16T14:26:47.296Z,101331.84
2023-09-16T14:29:19.737Z,101333.30
2023-09-16T14:31:52.505Z,101337.61
2023-09-16T14:34:24.960Z,101330.98
2023-09-16T14:36:57.408Z,101328.29
2023-09-16T14:39:29.983Z,101329.17
2023-09-16T14:42:02.577Z,101334.08
2023-09-16T14:44:37.286Z,101335.81
2023-09-16T14:47:09.995Z,101338.24
2023-09-16T14:49:42.619Z,101336.88
2023-09-16T14:52:15.731Z,101338.70
2023-09-16T14:54:48.208Z,101337.61
2023-09-16T14:57:20.912Z,101341.59
2023-09-16T14:59:51.537Z,101345.73
2023-09-16T15:02:24.127Z,101344.45
2023-09-16T15:04:58.252Z,101339.40
2023-09-16T15:07:30.777Z,101340.65
2023-09-16T15:10:03.457Z,101334.97
2023-09-16T15:12:36.122Z,101342.92
2023-09-16T15:15:11.303Z,101339.85
2023-09-16T15:17:43.969Z,101344.50
2023-09-16T15:20:16.803Z,101349.12
2023-09-16T15:22:49.418Z,101352.67
2023-09-16T15:25:22.070Z,101359.15
2023-09-16T15:27:55.400Z,101366.39
2023-09-16T15:30:28.560Z,101369.65
2023-09-16T15:33:01.070Z,101372.40
2023-09-16T15:35:36.373Z,101373.23
2023-09-16T15:38:09.070Z,101372.15
2023-09-16T15:40:41.474Z,101370.29
2023-09-16T15:43:12.102Z,101374.90
2023-09-16T15:45:44.422Z,101376.04
2023-09-16T15:48:15.120Z,101379.30
2023-09-16T15:50:50.719Z,101375.81
2023-09-16T15:53:23.486Z,101376.39
2023-09-16T15:55:56.246Z,101375.55
2023-09-16T15:58:28.866Z,101378.92
2023-09-16T16:01:01.441Z,101380.89
2023-09-16T16:03:35.883Z,101378.70
2023-09-16T16:06:08.596Z,101376.44
2023-09-16T16:08:42.984Z,101377.14
2023-09-16T16:11:15.525Z,101377.63
2023-09-16T16:13:48.408Z,101375.05
2023-09-16T16:16:21.491Z,101374.31
2023-09-16T16:18:54.279Z,101369.85
2023-09-16T16:21:27.228Z,101366.16
2023-09-16T16:23:59.739Z,101363.77
2023-09-16T16:26:33.201Z,101363.11
2023-09-16T16:29:05.767Z,101357.38
2023-09-16T16:31:38.280Z,101359.98
2023-09-16T16:34:10.880Z,101355.64
2023-09-16T16:36:44.414Z,101358.14
2023-09-16T16:39:16.808Z,101356.30
2023-09-16T16:41:50.455Z,101352.46
2023-09-16T16:44:22.968Z,101353.29
2023-09-16T16:47:00.748Z,101352.77
2023-09-16T16:49:34.133Z,101349.95
2023-09-16T16:52:06.942Z,101348.41
2023-09-16T16:54:39.496Z,101345.68
2023-09-16T16:57:11.784Z,101348.45
2023-09-16T16:59:44.914Z,101341.75
2023-09-16T17:02:17.533Z,101343.41
2023-09-16T17:04:51.895Z,101347.17
2023-09-16T17:07:24.582Z,101351.63
2023-09-16T17:09:57.529Z,101354.18
2023-09-16T17:12:30.150Z,101360.05
2023-09-16T17:15:02.581Z,101362.86
2023-09-16T17:17:35.066Z,101367.07
2023-09-16T17:20:10.027Z,101372.91
2023-09-16T17:22:42.640Z,101377.24
2023-09-16T17:25:17.246Z,101385.60
2023-09-16T17:27:49.705Z,101388.70
2023-09-16T17:30:20.401Z,101391.84
2023-09-16T17:32:53.788Z,101391.70
2023-09-16T17:35:26.332Z,101391.98
2023-09-16T17:37:59.050Z,101394.67
2023-09-16T17:40:31.744Z,101398.69
2023-09-16T17:43:04.587Z,101405.11
2023-09-16T17:45:37.135Z,101408.61
2023-09-16T17:48:09.804Z,101409.38
2023-09-16T17:50:42.379Z,101415.30
2023-09-16T17:53:14.813Z,101417.23
2023-09-16T17:55:47.501Z,101420.95
2023-09-16T17:58:20.476Z,101423.05
2023-09-16T18:00:53.576Z,101427.66
2023-09-16T18:03:26.212Z,101427.94
2023-09-16T18:05:58.734Z,101432.02
2023-09-16T18:08:35.758Z,101429.77
2023-09-16T18:11:08.525Z,101433.17
2023-09-16T18:13:41.084Z,101432.44
2023-09-16T18:16:15.462Z,101432.05
2023-09-16T18:18:48.481Z,101428.40
2023-09-16T18:21:21.408Z,101427.22
2023-09-16T18:23:54.392Z,101428.95
2023-09-16T18:26:27.117Z,101428.77
2023-09-16T18:29:00.436Z,101430.18
2023-09-16T18:31:32.961Z,101430.33
2023-09-16T18:34:05.844Z,101430.42
2023-09-16T18:36:38.655Z,101430.77
2023-09-16T18:39:11.596Z,101425.63
2023-09-16T18:41:44.431Z,101425.99
2023-09-16T18:44:17.642Z,101426.16
2023-09-16T18:46:51.651Z,101428.30
2023-09-16T18:49:28.556Z,101425.45
2023-09-16T18:52:01.492Z,101426.80
2023-09-16T18:54:35.368Z,101427.72
2023-09-16T18:57:09.370Z,101427.08
2023-09-16T18:59:42.029Z,101426.02
2023-09-16T19:02:15.037Z,101425.98
2023-09-16T19:04:47.817Z,101430.61
2023-09-16T19:07:23.448Z,101433.43
2023-09-16T19:09:57.976Z,101435.36
2023-09-16T19:12:30.329Z,101438.42
2023-09-16T19:15:04.346Z,101436.91
2023-09-16T19:17:36.887Z,101442.14
2023-09-16T19:20:12.226Z,101448.32
2023-09-16T19:22:44.690Z,101444.89
2023-09-16T19:25:16.206Z,101442.98
2023-09-16T19:27:48.682Z,101446.11
2023-09-16T19:30:19.598Z,101440.03
2023-09-16T19:32:52.914Z,101437.42
2023-09-16T19:35:27.299Z,101437.91
2023-09-16T19:37:59.852Z,101435.98
2023-09-16T19:40:32.330Z,101438.48
2023-09-16T19:43:05.362Z,101442.87
2023-09-16T19:45:38.038Z,101446.56
2023-09-16T19:48:10.637Z,101448.74
2023-09-16T19:50:44.251Z,101449.48
2023-09-16T19:53:17.286Z,101454.45
2023-09-16T19:55:50.257Z,101457.97
2023-09-16T19:58:22.894Z,101461.19
2023-09-16T20:01:01.511Z,101458.52
2023-09-16T20:03:35.035Z,101460.59
2023-09-16T20:06:14.974Z,101465.73
2023-09-16T20:08:47.652Z,101467.67
2023-09-16T20:11:26.998Z,101466.17
2023-09-16T20:14:05.545Z,101470.95
2023-09-16T20:16:41.600Z,101470.67
2023-09-16T20:19:21.430Z,101467.63
2023-09-16T20:21:59.135Z,101470.33
2023-09-16T20:24:34.541Z,101476.13
2023-09-16T20:27:10.380Z,101476.73
2023-09-16T20:29:43.312Z,101473.62
2023-09-16T20:32:20.316Z,101474.53
2023-09-16T20:34:59.864Z,101471.08
2023-09-16T20:37:44.126Z,101469.80
2023-09-16T20:40:23.874Z,101470.40
2023-09-16T20:42:56.486Z,101472.89
2023-09-16T20:45:31.667Z,101471.50
2023-09-16T20:48:07.474Z,101474.86
2023-09-16T20:50:42.859Z,101469.53
2023-09-16T20:53:16.151Z,101469.98
2023-09-16T20:55:55.336Z,101466.11
2023-09-16T20:58:27.901Z,101472.12
2023-09-16T21:01:00.841Z,101468.25
2023-09-16T21:03:40.819Z,101467.55
2023-09-16T21:06:19.028Z,101469.77
2023-09-16T21:08:52.060Z,101468.36
2023-09-16T21:11:27.833Z,101470.48
2023-09-16T21:14:08.869Z,101473.40
2023-09-16T21:16:43.194Z,101469.06
2023-09-16T21:19:15.882Z,101463.98
2023-09-16T21:21:54.521Z,101461.81
2023-09-16T21:24:30.229Z,101462.42
2023-09-16T21:27:05.769Z,101459.22
2023-09-16T21:29:42.594Z,101459.20
2023-09-16T21:32:15.473Z,101461.71
2023-09-16T21:34:48.439Z,101460.70
2023-09-16T21:37:23.412Z,101456.84
2023-09-16T21:39:56.535Z,101457.19
2023-09-16T21:42:34.099Z,101454.85
2023-09-16T21:45:10.928Z,101450.18
2023-09-16T21:47:43.714Z,101453.44
2023-09-16T21:50:16.448Z,101455.15
2023-09-16T21:52:50.519Z,101452.11
2023-09-16T21:55:26.064Z,101453.34
2023-09-16T21:57:58.790Z,101452.56
2023-09-16T22:00:35.963Z,101455.44
2023-09-16T22:03:09.348Z,101454.64
2023-09-16T22:05:42.910Z,101458.19
2023-09-16T22:08:15.368Z,101455.73
2023-09-16T22:10:48.071Z,101455.77
2023-09-16T22:13:20.723Z,101457.08
2023-09-16T22:15:54.540Z,101457.10
2023-09-16T22:18:27.049Z,101462.41
2023-09-16T22:20:57.874Z,101459.04
2023-09-16T22:23:30.406Z,101460.42
2023-09-16T22:26:08.342Z,101462.28
2023-09-16T22:28:41.164Z,101463.67
2023-09-16T22:31:17.297Z,101465.42
2023-09-16T22:33:50.388Z,101468.51
2023-09-16T22:36:25.262Z,101467.46
2023-09-16T22:38:58.180Z,101468.55
2023-09-16T22:41:30.847Z,101470.41
2023-09-16T22:44:04.156Z,101471.66
2023-09-16T22:46:37.526Z,101472.11
2023-09-16T22:49:10.608Z,101477.07
2023-09-16T22:51:43.260Z,101482.42
2023-09-16T22:54:14.051Z,101484.88
2023-09-16T22:56:46.504Z,101483.02
2023-09-16T22:59:17.257Z,101481.66
2023-09-16T23:01:49.991Z,101482.57
2023-09-16T23:04:22.630Z,101480.70
2023-09-16T23:06:55.963Z,101481.62
2023-09-16T23:09:28.694Z,101478.65
2023-09-16T23:12:01.863Z,101478.21
2023-09-16T23:14:35.192Z,101478.44
2023-09-16T23:17:08.468Z,101477.98
2023-09-16T23:19:42.394Z,101479.78
2023-09-16T23:22:15.107Z,101477.23
2023-09-16T23:24:49.930Z,101477.16
2023-09-16T23:27:22.563Z,101471.55
2023-09-16T23:29:53.399Z,101477.02
2023-09-16T23:32:25.974Z,101473.63
2023-09-16T23:34:58.437Z,101470.14
2023-09-16T23:37:29.364Z,101468.89
2023-09-16T23:40:01.907Z,101462.80
2023-09-16T23:42:34.739Z,101455.77
2023-09-16T23:45:08.810Z,101453.42
2023-09-16T23:47:41.344Z,101450.30
2023-09-16T23:50:14.389Z,101449.83
2023-09-16T23:52:46.909Z,101447.20
2023-09-16T23:55:19.618Z,101445.42
2023-09-16T23:57:52.311Z,101440.58
